createdAt,value
2022-08-11T00:01:25.237Z,15.68
2022-08-11T00:04:04.905Z,15.91
2022-08-11T00:06:35.166Z,15.92
2022-08-11T00:09:04.913Z,15.74
2022-08-11T00:11:41.428Z,15.72
2022-08-11T00:14:19.331Z,15.48
2022-08-11T00:17:00.622Z,15.48
2022-08-11T00:20:12.750Z,15.38
2022-08-11T00:22:23.521Z,15.29
2022-08-11T00:24:54.733Z,15.11
2022-08-11T00:27:32.266Z,14.99
2022-08-11T00:29:59.197Z,14.93
2022-08-11T00:32:27.729Z,14.88
2022-08-11T00:35:49.994Z,14.98
2022-08-11T00:37:50.634Z,14.83
2022-08-11T00:40:31.287Z,14.99
2022-08-11T00:43:20.261Z,15.15
2022-08-11T00:46:23.548Z,15.34
2022-08-11T00:49:02.390Z,15.12
2022-08-11T00:52:04.286Z,15.16
2022-08-11T00:54:38.758Z,15.21
2022-08-11T00:57:37.729Z,15.25
2022-08-11T01:00:18.983Z,14.96
2022-08-11T01:03:07.825Z,15.13
2022-08-11T01:05:34.420Z,15.42
2022-08-11T01:08:40.136Z,15.52
2022-08-11T01:11:24.935Z,15.20
2022-08-11T01:14:34.381Z,15.20
2022-08-11T01:17:30.288Z,15.04
2022-08-11T01:20:48.637Z,14.99
2022-08-11T01:23:53.925Z,14.82
2022-08-11T01:26:29.513Z,14.81
2022-08-11T01:29:07.868Z,14.89
2022-08-11T01:32:11.880Z,15.12
2022-08-11T01:35:49.430Z,14.81
2022-08-11T01:38:38.092Z,14.89
2022-08-11T01:41:49.441Z,14.86
2022-08-11T01:44:37.409Z,14.80
2022-08-11T01:47:52.489Z,14.47
2022-08-11T01:50:54.335Z,14.45
2022-08-11T01:53:40.167Z,14.55
2022-08-11T01:56:34.343Z,14.32
2022-08-11T01:59:11.992Z,14.21
2022-08-11T02:01:38.648Z,14.36
2022-08-11T02:04:29.543Z,14.28
2022-08-11T02:07:11.812Z,14.22
2022-08-11T02:09:54.459Z,14.02
2022-08-11T02:12:46.083Z,13.95
2022-08-11T02:15:28.421Z,14.11
2022-08-11T02:18:13.949Z,14.11
2022-08-11T02:21:02.373Z,14.03
2022-08-11T02:24:14.345Z,14.09
2022-08-11T02:27:02.185Z,14.33
2022-08-11T02:29:53.056Z,14.06
2022-08-11T02:32:53.080Z,14.39
2022-08-11T02:35:36.651Z,14.16
2022-08-11T02:38:18.426Z,14.25
2022-08-11T02:40:49.432Z,14.05
2022-08-11T02:43:37.751Z,14.02
2022-08-11T02:46:27.396Z,14.07
2022-08-11T02:49:23.497Z,14.20
2022-08-11T02:52:08.584Z,14.54
2022-08-11T02:54:56.317Z,14.25
2022-08-11T02:57:37.594Z,14.08
2022-08-11T03:00:11.924Z,14.03
2022-08-11T03:02:51.690Z,13.86
2022-08-11T03:05:24.457Z,14.03
2022-08-11T03:08:07.359Z,13.89
2022-08-11T03:11:19.883Z,13.86
2022-08-11T03:14:15.586Z,13.79
2022-08-11T03:16:55.655Z,13.80
2022-08-11T03:19:41.868Z,13.86
2022-08-11T03:22:19.322Z,13.83
2022-08-11T03:24:46.397Z,13.86
2022-08-11T03:27:41.623Z,13.82
2022-08-11T03:30:34.889Z,13.87
2022-08-11T03:33:43.912Z,14.01
2022-08-11T03:36:33.314Z,13.90
2022-08-11T03:39:51.122Z,13.85
2022-08-11T03:42:46.267Z,14.06
2022-08-11T03:45:31.176Z,14.20
2022-08-11T03:48:07.033Z,14.21
2022-08-11T03:51:01.607Z,13.81
2022-08-11T03:53:45.850Z,13.78
2022-08-11T03:56:30.845Z,13.78
2022-08-11T03:59:21.759Z,13.64
2022-08-11T04:02:02.332Z,13.60
2022-08-11T04:04:29.356Z,13.68
2022-08-11T04:07:32.443Z,13.60
2022-08-11T04:09:59.070Z,13.71
2022-08-11T04:12:48.694Z,13.76
2022-08-11T04:16:11.363Z,14.14
2022-08-11T04:19:00.728Z,13.85
2022-08-11T04:21:49.020Z,14.22
2022-08-11T04:24:36.171Z,13.52
2022-08-11T04:27:44.782Z,13.61
2022-08-11T04:30:28.240Z,13.64
2022-08-11T04:32:59.755Z,13.68
2022-08-11T04:36:02.350Z,14.08
2022-08-11T04:38:44.809Z,13.96
2022-08-11T04:41:33.427Z,14.12
2022-08-11T04:44:06.967Z,14.01
2022-08-11T04:47:10.396Z,14.16
2022-08-11T04:50:22.075Z,13.99
2022-08-11T04:53:10.400Z,13.94
2022-08-11T04:56:11.029Z,14.05
2022-08-11T04:59:13.860Z,13.92
2022-08-11T05:01:59.317Z,13.41
2022-08-11T05:04:56.569Z,13.57
2022-08-11T05:07:26.404Z,13.75
2022-08-11T05:10:19.994Z,13.98
2022-08-11T05:12:51.928Z,14.25
2022-08-11T05:15:52.956Z,14.49
2022-08-11T05:18:42.735Z,14.52
2022-08-11T05:21:30.596Z,14.69
2022-08-11T05:24:40.894Z,14.82
2022-08-11T05:27:33.336Z,14.92
2022-08-11T05:30:25.202Z,14.88
2022-08-11T05:33:22.675Z,14.72
2022-08-11T05:36:01.424Z,14.77
2022-08-11T05:38:54.541Z,14.89
2022-08-11T05:41:45.812Z,15.06
2022-08-11T05:44:37.543Z,14.92
2022-08-11T05:47:23.319Z,14.76
2022-08-11T05:50:13.735Z,14.67
2022-08-11T05:53:04.813Z,14.65
2022-08-11T05:56:02.545Z,14.65
2022-08-11T05:58:42.540Z,15.07
2022-08-11T06:01:12.304Z,15.56
2022-08-11T06:04:02.166Z,15.70
2022-08-11T06:06:30.248Z,15.69
2022-08-11T06:08:58.762Z,15.72
2022-08-11T06:11:43.279Z,15.71
2022-08-11T06:14:12.701Z,15.98
2022-08-11T06:16:41.460Z,15.88
2022-08-11T06:19:09.240Z,15.97
2022-08-11T06:21:36.616Z,16.30
2022-08-11T06:24:14.065Z,16.33
2022-08-11T06:27:09.185Z,16.47
2022-08-11T06:29:46.833Z,16.58
2022-08-11T06:32:16.439Z,16.55
2022-08-11T06:35:09.804Z,16.63
2022-08-11T06:37:45.288Z,16.79
2022-08-11T06:40:25.689Z,17.00
2022-08-11T06:43:21.788Z,17.12
2022-08-11T06:45:51.445Z,17.22
2022-08-11T06:48:21.856Z,17.45
2022-08-11T06:51:14.033Z,17.48
2022-08-11T06:54:03.566Z,17.63
2022-08-11T06:57:12.437Z,17.92
2022-08-11T06:59:59.897Z,17.98
2022-08-11T07:02:37.729Z,18.05
2022-08-11T07:05:16.794Z,18.21
2022-08-11T07:08:41.496Z,18.31
2022-08-11T07:12:16.381Z,18.42
2022-08-11T07:15:09.285Z,18.58
2022-08-11T07:17:49.694Z,18.75
2022-08-11T07:21:01.769Z,18.95
2022-08-11T07:23:50.513Z,18.89
2022-08-11T07:26:43.024Z,19.19
2022-08-11T07:29:14.546Z,19.23
2022-08-11T07:31:46.321Z,19.22
2022-08-11T07:34:36.729Z,19.41
2022-08-11T07:37:17.755Z,19.57
2022-08-11T07:39:46.539Z,19.78
2022-08-11T07:42:27.834Z,19.78
2022-08-11T07:45:15.204Z,20.14
2022-08-11T07:48:02.022Z,20.05
2022-08-11T07:50:51.774Z,20.31
2022-08-11T07:53:22.067Z,20.20
2022-08-11T07:55:51.570Z,20.43
2022-08-11T07:58:45.261Z,20.52
2022-08-11T08:01:43.270Z,20.38
2022-08-11T08:04:30.231Z,20.71
2022-08-11T08:07:17.021Z,20.75
2022-08-11T08:10:03.364Z,20.89
2022-08-11T08:12:50.129Z,21.28
2022-08-11T08:15:36.288Z,21.19
2022-08-11T08:18:08.351Z,21.39
2022-08-11T08:20:40.292Z,21.22
2022-08-11T08:23:08.345Z,21.44
2022-08-11T08:25:38.057Z,21.51
2022-08-11T08:28:10.076Z,21.55
2022-08-11T08:30:54.707Z,21.65
2022-08-11T08:33:23.192Z,21.84
2022-08-11T08:36:11.210Z,21.81
2022-08-11T08:38:47.287Z,21.89
2022-08-11T08:41:17.404Z,22.04
2022-08-11T08:43:49.583Z,22.23
2022-08-11T08:46:19.573Z,22.25
2022-08-11T08:48:48.075Z,22.40
2022-08-11T08:52:00.836Z,22.26
2022-08-11T08:54:25.383Z,22.50
2022-08-11T08:56:56.064Z,22.74
2022-08-11T08:59:25.919Z,22.54
2022-08-11T09:02:00.716Z,22.92
2022-08-11T09:04:29.406Z,22.60
2022-08-11T09:07:06.670Z,22.89
2022-08-11T09:09:33.956Z,22.98
2022-08-11T09:12:05.337Z,23.06
2022-08-11T09:14:56.447Z,22.81
2022-08-11T09:17:23.700Z,22.97
2022-08-11T09:20:01.920Z,23.17
2022-08-11T09:23:10.549Z,23.46
2022-08-11T09:25:58.121Z,23.43
2022-08-11T09:28:31.695Z,23.65
2022-08-11T09:31:01.468Z,23.86
2022-08-11T09:33:30.572Z,23.74
2022-08-11T09:35:58.217Z,23.68
2022-08-11T09:38:49.397Z,23.77
2022-08-11T09:41:17.043Z,23.84
2022-08-11T09:44:04.527Z,24.23
2022-08-11T09:46:33.115Z,24.42
2022-08-11T09:49:02.341Z,24.44
2022-08-11T09:51:32.270Z,24.46
2022-08-11T09:54:06.555Z,24.39
2022-08-11T09:56:52.440Z,24.43
2022-08-11T09:59:22.163Z,24.72
2022-08-11T10:01:55.096Z,24.69
2022-08-11T10:04:35.611Z,24.96
2022-08-11T10:07:10.381Z,24.78
2022-08-11T10:09:51.708Z,24.76
2022-08-11T10:12:30.289Z,24.98
2022-08-11T10:15:22.402Z,25.10
2022-08-11T10:18:20.081Z,25.05
2022-08-11T10:20:51.805Z,25.16
2022-08-11T10:24:00.640Z,24.76
2022-08-11T10:26:48.521Z,24.83
2022-08-11T10:29:37.570Z,25.00
2022-08-11T10:32:31.933Z,25.45
2022-08-11T10:35:02.065Z,25.06
2022-08-11T10:38:08.689Z,25.39
2022-08-11T10:40:23.638Z,25.73
2022-08-11T10:43:06.794Z,25.69
2022-08-11T10:45:55.259Z,25.47
2022-08-11T10:48:30.327Z,25.63
2022-08-11T10:51:50.544Z,25.91
2022-08-11T10:54:24.244Z,25.78
2022-08-11T10:57:12.779Z,26.23
2022-08-11T10:59:42.705Z,26.06
2022-08-11T11:02:15.133Z,26.15
2022-08-11T11:05:09.280Z,26.09
2022-08-11T11:07:50.264Z,26.33
2022-08-11T11:10:17.083Z,26.15
2022-08-11T11:13:04.743Z,26.18
2022-08-11T11:15:54.632Z,26.17
2022-08-11T11:18:35.720Z,26.33
2022-08-11T11:21:08.544Z,26.20
2022-08-11T11:23:53.934Z,26.69
2022-08-11T11:26:38.625Z,27.02
2022-08-11T11:29:26.797Z,26.57
2022-08-11T11:32:16.485Z,26.48
2022-08-11T11:34:54.181Z,26.41
2022-08-11T11:37:23.770Z,26.42
2022-08-11T11:39:53.213Z,26.82
2022-08-11T11:42:21.641Z,26.95
2022-08-11T11:44:48.975Z,26.97
2022-08-11T11:47:21.829Z,26.87
2022-08-11T11:49:49.779Z,27.46
2022-08-11T11:52:19.632Z,27.25
2022-08-11T11:54:51.337Z,26.75
2022-08-11T11:57:38.499Z,27.11
2022-08-11T12:00:33.539Z,27.26
2022-08-11T12:03:09.628Z,28.20
2022-08-11T12:05:38.153Z,28.48
2022-08-11T12:08:16.271Z,28.63
2022-08-11T12:11:13.423Z,28.33
2022-08-11T12:13:42.193Z,27.98
2022-08-11T12:16:35.069Z,27.56
2022-08-11T12:19:03.927Z,27.82
2022-08-11T12:21:31.320Z,27.80
2022-08-11T12:24:19.603Z,28.02
2022-08-11T12:27:02.813Z,28.20
2022-08-11T12:29:41.353Z,28.51
2022-08-11T12:32:11.118Z,28.57
2022-08-11T12:34:37.961Z,27.86
2022-08-11T12:37:10.920Z,27.90
2022-08-11T12:40:16.812Z,28.55
2022-08-11T12:43:21.902Z,28.21
2022-08-11T12:45:58.369Z,28.01
2022-08-11T12:49:00.532Z,27.95
2022-08-11T12:52:11.621Z,27.99
2022-08-11T12:54:57.191Z,28.41
2022-08-11T12:57:50.263Z,28.35
2022-08-11T13:00:36.841Z,28.64
2022-08-11T13:03:25.908Z,28.32
2022-08-11T13:05:59.527Z,28.38
2022-08-11T13:08:29.271Z,28.21
2022-08-11T13:11:16.707Z,28.44
2022-08-11T13:13:52.906Z,28.09
2022-08-11T13:16:32.183Z,28.06
2022-08-11T13:19:01.021Z,28.35
2022-08-11T13:21:28.600Z,28.05
2022-08-11T13:24:00.462Z,28.34
2022-08-11T13:26:43.395Z,28.17
2022-08-11T13:29:20.709Z,28.63
2022-08-11T13:31:48.396Z,28.80
2022-08-11T13:34:17.121Z,29.45
2022-08-11T13:36:45.782Z,30.50
2022-08-11T13:39:13.536Z,30.65
2022-08-11T13:41:45.028Z,30.39
2022-08-11T13:44:15.825Z,29.08
2022-08-11T13:46:45.805Z,29.07
2022-08-11T13:49:16.675Z,29.16
2022-08-11T13:51:44.162Z,29.11
2022-08-11T13:54:22.564Z,28.76
2022-08-11T13:56:54.093Z,29.50
2022-08-11T13:59:30.039Z,29.08
2022-08-11T14:02:22.052Z,28.95
2022-08-11T14:04:56.234Z,29.42
2022-08-11T14:07:25.755Z,29.81
2022-08-11T14:10:01.947Z,30.66
2022-08-11T14:12:52.267Z,31.60
2022-08-11T14:15:32.919Z,31.43
2022-08-11T14:18:06.467Z,30.90
2022-08-11T14:20:54.248Z,30.20
2022-08-11T14:23:31.328Z,36.64
2022-08-11T14:26:18.477Z,38.56
2022-08-11T14:28:46.012Z,39.09
2022-08-11T14:31:15.501Z,36.47
2022-08-11T14:34:00.913Z,39.70
2022-08-11T14:36:59.045Z,38.44
2022-08-11T14:39:28.399Z,36.91
2022-08-11T14:42:20.811Z,38.00
2022-08-11T14:45:02.728Z,38.15
2022-08-11T14:47:37.582Z,36.14
2022-08-11T14:50:11.508Z,37.06
2022-08-11T14:53:01.708Z,35.39
2022-08-11T14:55:48.835Z,36.60
2022-08-11T14:58:21.748Z,37.16
2022-08-11T15:00:53.354Z,36.99
2022-08-11T15:03:26.242Z,35.74
2022-08-11T15:05:58.544Z,36.09
2022-08-11T15:08:48.159Z,33.97
2022-08-11T15:11:36.799Z,35.34
2022-08-11T15:14:06.458Z,37.49
2022-08-11T15:16:52.385Z,35.72
2022-08-11T15:19:21.279Z,36.91
2022-08-11T15:22:08.035Z,36.40
2022-08-11T15:24:36.457Z,37.15
2022-08-11T15:27:31.512Z,36.65
2022-08-11T15:30:32.632Z,35.85
2022-08-11T15:33:23.250Z,35.37
2022-08-11T15:36:10.943Z,34.05
2022-08-11T15:38:44.461Z,33.12
2022-08-11T15:41:35.880Z,33.69
2022-08-11T15:44:44.443Z,34.98
2022-08-11T15:47:14.280Z,34.69
2022-08-11T15:50:10.397Z,33.26
2022-08-11T15:52:37.847Z,32.91
2022-08-11T15:55:08.880Z,33.46
2022-08-11T15:57:55.697Z,32.70
2022-08-11T16:00:41.362Z,32.77
2022-08-11T16:03:54.487Z,33.01
2022-08-11T16:06:15.932Z,33.51
2022-08-11T16:08:45.672Z,32.78
2022-08-11T16:11:13.829Z,32.77
2022-08-11T16:13:40.912Z,32.59
2022-08-11T16:16:15.351Z,32.46
2022-08-11T16:18:53.815Z,32.34
2022-08-11T16:21:33.753Z,32.58
2022-08-11T16:24:06.004Z,32.07
2022-08-11T16:27:11.733Z,32.18
2022-08-11T16:29:25.001Z,33.00
2022-08-11T16:32:11.556Z,32.34
2022-08-11T16:34:58.464Z,31.70
2022-08-11T16:37:44.235Z,31.93
2022-08-11T16:40:12.059Z,32.11
2022-08-11T16:43:04.604Z,32.22
2022-08-11T16:45:59.385Z,31.98
2022-08-11T16:48:36.453Z,32.27
2022-08-11T16:51:07.013Z,32.03
2022-08-11T16:53:54.675Z,31.64
2022-08-11T16:56:30.084Z,31.49
2022-08-11T16:59:17.029Z,30.48
2022-08-11T17:02:04.915Z,29.10
2022-08-11T17:05:00.159Z,28.67
2022-08-11T17:07:47.526Z,27.82
2022-08-11T17:11:01.570Z,27.38
2022-08-11T17:13:42.340Z,27.23
2022-08-11T17:16:13.608Z,27.21
2022-08-11T17:18:43.487Z,27.08
2022-08-11T17:21:23.795Z,27.10
2022-08-11T17:23:55.279Z,27.14
2022-08-11T17:26:27.439Z,27.00
2022-08-11T17:28:59.284Z,26.87
2022-08-11T17:31:45.709Z,26.89
2022-08-11T17:34:32.616Z,26.86
2022-08-11T17:37:00.187Z,26.70
2022-08-11T17:39:31.064Z,26.68
2022-08-11T17:42:18.237Z,26.62
2022-08-11T17:45:04.047Z,26.12
2022-08-11T17:47:51.349Z,26.36
2022-08-11T17:50:18.900Z,26.38
2022-08-11T17:53:06.171Z,26.40
2022-08-11T17:55:53.786Z,25.90
2022-08-11T17:58:41.670Z,26.01
2022-08-11T18:01:11.121Z,26.05
2022-08-11T18:03:40.556Z,25.85
2022-08-11T18:06:12.851Z,25.81
2022-08-11T18:09:02.472Z,25.61
2022-08-11T18:12:11.473Z,25.69
2022-08-11T18:14:57.601Z,25.30
2022-08-11T18:17:42.986Z,24.80
2022-08-11T18:20:28.887Z,25.06
2022-08-11T18:23:14.916Z,24.65
2022-08-11T18:26:06.400Z,24.46
2022-08-11T18:29:05.922Z,24.48
2022-08-11T18:31:54.188Z,24.56
2022-08-11T18:34:49.060Z,24.33
2022-08-11T18:37:45.620Z,24.20
2022-08-11T18:40:37.928Z,23.48
2022-08-11T18:43:28.347Z,23.56
2022-08-11T18:46:20.185Z,23.26
2022-08-11T18:49:15.374Z,23.32
2022-08-11T18:52:06.575Z,23.47
2022-08-11T18:54:55.456Z,23.33
2022-08-11T18:57:50.128Z,22.97
2022-08-11T19:00:41.927Z,22.60
2022-08-11T19:03:30.754Z,22.39
2022-08-11T19:06:38.157Z,21.83
2022-08-11T19:09:30.592Z,21.78
2022-08-11T19:12:17.952Z,21.44
2022-08-11T19:15:04.525Z,21.20
2022-08-11T19:17:53.911Z,21.16
2022-08-11T19:20:44.392Z,20.94
2022-08-11T19:23:33.883Z,20.95
2022-08-11T19:26:21.356Z,20.73
2022-08-11T19:29:08.148Z,20.84
2022-08-11T19:31:55.926Z,20.49
2022-08-11T19:34:43.623Z,20.59
2022-08-11T19:37:29.555Z,20.50
2022-08-11T19:40:27.175Z,20.21
2022-08-11T19:43:23.832Z,20.05
2022-08-11T19:46:15.963Z,20.15
2022-08-11T19:49:05.002Z,19.93
2022-08-11T19:51:54.256Z,19.81
2022-08-11T19:54:44.344Z,19.69
2022-08-11T19:57:34.674Z,19.53
2022-08-11T20:00:30.059Z,19.43
2022-08-11T20:03:17.462Z,19.45
2022-08-11T20:06:04.720Z,19.54
2022-08-11T20:08:55.126Z,19.45
2022-08-11T20:11:48.435Z,19.56
2022-08-11T20:14:36.204Z,19.27
2022-08-11T20:17:21.891Z,19.50
2022-08-11T20:20:09.144Z,19.07
2022-08-11T20:22:54.340Z,19.42
2022-08-11T20:25:43.000Z,19.22
2022-08-11T20:28:31.935Z,18.91
2022-08-11T20:31:17.256Z,18.99
2022-08-11T20:34:03.672Z,19.01
2022-08-11T20:36:54.936Z,18.80
2022-08-11T20:39:42.516Z,18.96
2022-08-11T20:42:30.689Z,18.81
2022-08-11T20:45:23.634Z,18.67
2022-08-11T20:48:15.320Z,18.47
2022-08-11T20:51:06.195Z,18.76
2022-08-11T20:53:56.833Z,18.75
2022-08-11T20:56:45.676Z,18.59
2022-08-11T20:59:33.362Z,18.56
2022-08-11T21:02:35.741Z,18.47
2022-08-11T21:06:08.198Z,18.44
2022-08-11T21:08:29.472Z,18.62
2022-08-11T21:11:15.150Z,18.41
2022-08-11T21:14:14.452Z,18.21
2022-08-11T21:17:04.523Z,18.03
2022-08-11T21:20:17.074Z,18.11
2022-08-11T21:23:32.785Z,18.23
2022-08-11T21:26:26.139Z,18.20
2022-08-11T21:29:18.392Z,18.22
2022-08-11T21:32:05.071Z,18.06
2022-08-11T21:34:52.367Z,18.26
2022-08-11T21:37:39.037Z,18.17
2022-08-11T21:40:28.693Z,18.15
2022-08-11T21:43:17.443Z,18.20
2022-08-11T21:46:04.193Z,17.99
2022-08-11T21:48:50.249Z,18.08
2022-08-11T21:51:35.463Z,18.22
2022-08-11T21:54:21.886Z,18.09
2022-08-11T21:57:07.824Z,17.95
2022-08-11T22:00:03.115Z,17.79
2022-08-11T22:02:53.470Z,17.66
2022-08-11T22:05:39.671Z,17.92
2022-08-11T22:08:26.611Z,18.26
2022-08-11T22:11:12.885Z,17.87
2022-08-11T22:14:06.001Z,18.03
2022-08-11T22:16:54.089Z,18.16
2022-08-11T22:19:40.507Z,18.25
2022-08-11T22:22:26.764Z,18.21
2022-08-11T22:25:16.492Z,18.04
2022-08-11T22:28:03.925Z,18.17
2022-08-11T22:30:49.240Z,18.22
2022-08-11T22:33:35.500Z,17.58
2022-08-11T22:36:23.952Z,17.74
2022-08-11T22:39:09.974Z,17.48
2022-08-11T22:41:55.105Z,17.62
2022-08-11T22:44:40.293Z,17.59
2022-08-11T22:47:38.466Z,17.70
2022-08-11T22:50:27.086Z,17.71
2022-08-11T22:53:13.895Z,17.58
2022-08-11T22:55:59.827Z,17.43
2022-08-11T22:58:46.058Z,17.34
2022-08-11T23:01:35.696Z,17.44
2022-08-11T23:04:21.370Z,17.41
2022-08-11T23:07:08.637Z,17.55
2022-08-11T23:09:54.522Z,17.35
2022-08-11T23:12:40.065Z,17.62
2022-08-11T23:15:26.429Z,17.66
2022-08-11T23:18:11.984Z,17.64
2022-08-11T23:20:59.062Z,17.73
2022-08-11T23:23:47.521Z,17.79
2022-08-11T23:26:37.089Z,17.75
2022-08-11T23:29:23.164Z,17.81
2022-08-11T23:32:11.369Z,17.81
2022-08-11T23:35:38.090Z,17.94
2022-08-11T23:38:08.201Z,17.58
2022-08-11T23:40:53.353Z,17.85
2022-08-11T23:43:43.136Z,17.76
2022-08-11T23:46:29.186Z,17.72
2022-08-11T23:49:17.484Z,17.77
2022-08-11T23:52:03.843Z,17.57
2022-08-11T23:54:49.543Z,17.36
2022-08-11T23:57:35.025Z,17.44
